createdAt,value
2018-09-16T00:01:00.622Z,15.10
2018-09-16T00:02:04.826Z,15.32
2018-09-16T00:03:09.072Z,15.90
2018-09-16T00:04:13.422Z,11.83
2018-09-16T00:05:17.652Z,14.98
2018-09-16T00:06:21.809Z,17.98
2018-09-16T00:07:26.262Z,15.43
2018-09-16T00:08:30.502Z,14.53
2018-09-16T00:09:34.674Z,11.73
2018-09-16T00:10:38.830Z,14.47
2018-09-16T00:11:43.011Z,13.70
2018-09-16T00:12:47.187Z,12.78
2018-09-16T00:13:51.345Z,18.37
2018-09-16T00:14:55.535Z,12.43
2018-09-16T00:15:59.697Z,15.23
2018-09-16T00:17:03.879Z,15.83
2018-09-16T00:18:08.095Z,16.32
2018-09-16T00:19:12.275Z,17.80
2018-09-16T00:20:16.637Z,17.73
2018-09-16T00:21:20.825Z,16.95
2018-09-16T00:22:25.167Z,13.35
2018-09-16T00:23:29.498Z,26.70
2018-09-16T00:24:33.703Z,17.25
2018-09-16T00:25:37.871Z,14.63
2018-09-16T00:26:42.278Z,17.05
2018-09-16T00:27:46.474Z,11.83
2018-09-16T00:28:50.678Z,15.05
2018-09-16T00:29:54.846Z,13.65
2018-09-16T00:30:59.091Z,17.85
2018-09-16T00:32:08.368Z,14.65
2018-09-16T00:33:13.533Z,13.08
2018-09-16T00:34:17.667Z,12.23
2018-09-16T00:35:21.944Z,18.23
2018-09-16T00:36:26.295Z,17.17
2018-09-16T00:37:30.456Z,16.82
2018-09-16T00:38:34.786Z,13.60
2018-09-16T00:39:38.946Z,18.10
2018-09-16T00:40:43.204Z,19.55
2018-09-16T00:41:47.431Z,14.73
2018-09-16T00:42:51.688Z,16.17
2018-09-16T00:43:55.846Z,15.15
2018-09-16T00:45:00.046Z,11.38
2018-09-16T00:46:04.347Z,16.23
2018-09-16T00:47:08.547Z,11.97
2018-09-16T00:48:12.714Z,13.18
2018-09-16T00:49:16.853Z,16.62
2018-09-16T00:50:21.022Z,14.20
2018-09-16T00:51:25.226Z,16.12
2018-09-16T00:52:29.378Z,13.90
2018-09-16T00:53:33.507Z,13.70
2018-09-16T00:54:37.658Z,11.60
2018-09-16T00:55:41.905Z,13.00
2018-09-16T00:56:46.048Z,9.60
2018-09-16T00:57:50.252Z,12.85
2018-09-16T00:58:54.439Z,16.48
2018-09-16T00:59:58.691Z,19.40
2018-09-16T01:01:02.871Z,16.97
2018-09-16T01:02:07.003Z,20.20
2018-09-16T01:03:11.223Z,11.85
2018-09-16T01:04:15.382Z,16.52
2018-09-16T01:05:19.519Z,13.22
2018-09-16T01:06:28.918Z,14.40
2018-09-16T01:07:33.062Z,16.02
2018-09-16T01:08:37.282Z,14.93
2018-09-16T01:09:41.430Z,15.55
2018-09-16T01:10:45.629Z,14.90
2018-09-16T01:11:49.833Z,16.60
2018-09-16T01:12:54.061Z,13.68
2018-09-16T01:13:58.359Z,16.97
2018-09-16T01:15:02.478Z,16.00
2018-09-16T01:16:06.864Z,12.10
2018-09-16T01:17:11.270Z,12.93
2018-09-16T01:18:15.616Z,15.13
2018-09-16T01:19:19.986Z,13.40
2018-09-16T01:20:24.131Z,16.27
2018-09-16T01:21:28.380Z,11.68
2018-09-16T01:22:32.704Z,12.03
2018-09-16T01:23:36.947Z,14.20
2018-09-16T01:24:41.146Z,13.58
2018-09-16T01:25:45.318Z,17.40
2018-09-16T01:26:49.424Z,10.08
2018-09-16T01:27:53.966Z,12.85
2018-09-16T01:28:58.135Z,13.83
2018-09-16T01:30:02.442Z,12.98
2018-09-16T01:31:06.610Z,13.90
2018-09-16T01:32:10.868Z,17.12
2018-09-16T01:33:15.041Z,12.45
2018-09-16T01:34:19.203Z,13.20
2018-09-16T01:35:23.384Z,12.68
2018-09-16T01:36:27.932Z,12.70
2018-09-16T01:37:37.348Z,13.65
2018-09-16T01:38:46.878Z,18.85
2018-09-16T01:39:51.025Z,12.73
2018-09-16T01:40:55.644Z,16.17
2018-09-16T01:41:59.810Z,16.10
2018-09-16T01:43:04.009Z,12.65
2018-09-16T01:44:08.193Z,16.67
2018-09-16T01:45:12.389Z,14.03
2018-09-16T01:46:16.598Z,12.68
2018-09-16T01:47:20.778Z,15.68
2018-09-16T01:48:24.922Z,14.28
2018-09-16T01:49:29.096Z,13.90
2018-09-16T01:50:33.301Z,13.65
2018-09-16T01:51:37.454Z,17.73
2018-09-16T01:52:41.711Z,19.00
2018-09-16T01:53:45.914Z,11.83
2018-09-16T01:54:50.122Z,17.62
2018-09-16T01:55:54.266Z,11.97
2018-09-16T01:56:58.491Z,13.45
2018-09-16T01:58:02.720Z,19.05
2018-09-16T01:59:07.479Z,18.00
2018-09-16T02:00:11.718Z,17.15
2018-09-16T02:01:16.001Z,12.23
2018-09-16T02:02:20.285Z,16.67
2018-09-16T02:03:24.456Z,13.10
2018-09-16T02:04:28.872Z,13.35
2018-09-16T02:05:38.222Z,11.50
2018-09-16T02:06:42.417Z,14.18
2018-09-16T02:07:46.728Z,11.60
2018-09-16T02:08:50.873Z,14.23
2018-09-16T02:09:55.138Z,12.40
2018-09-16T02:10:59.766Z,13.65
2018-09-16T02:12:03.974Z,18.35
2018-09-16T02:13:08.265Z,9.45
2018-09-16T02:14:12.471Z,14.33
2018-09-16T02:15:17.061Z,10.80
2018-09-16T02:16:21.241Z,13.62
2018-09-16T02:17:25.411Z,19.87
2018-09-16T02:18:29.643Z,17.25
2018-09-16T02:19:33.831Z,13.28
2018-09-16T02:20:38.027Z,10.95
2018-09-16T02:21:42.202Z,14.20
2018-09-16T02:22:46.418Z,14.98
2018-09-16T02:23:50.775Z,10.53
2018-09-16T02:24:54.919Z,14.38
2018-09-16T02:25:59.138Z,10.82
2018-09-16T02:27:03.290Z,13.35
2018-09-16T02:28:07.452Z,11.88
2018-09-16T02:29:11.686Z,15.30
2018-09-16T02:30:15.875Z,15.63
2018-09-16T02:31:20.068Z,19.45
2018-09-16T02:32:24.222Z,16.48
2018-09-16T02:33:28.407Z,14.47
2018-09-16T02:34:32.718Z,15.55
2018-09-16T02:35:36.879Z,13.78
2018-09-16T02:36:41.455Z,9.55
2018-09-16T02:37:45.651Z,11.28
2018-09-16T02:38:49.819Z,9.15
2018-09-16T02:39:54.095Z,10.35
2018-09-16T02:40:58.266Z,14.78
2018-09-16T02:42:02.416Z,11.65
2018-09-16T02:43:06.561Z,9.30
2018-09-16T02:44:10.725Z,13.05
2018-09-16T02:45:15.091Z,12.03
2018-09-16T02:46:19.343Z,9.73
2018-09-16T02:47:23.746Z,11.22
2018-09-16T02:48:27.955Z,9.80
2018-09-16T02:49:32.110Z,12.28
2018-09-16T02:50:36.329Z,10.55
2018-09-16T02:51:40.715Z,14.03
2018-09-16T02:52:45.036Z,9.40
2018-09-16T02:53:49.289Z,15.88
2018-09-16T02:54:53.461Z,8.90
2018-09-16T02:55:57.697Z,10.20
2018-09-16T02:57:02.212Z,11.78
2018-09-16T02:58:06.334Z,9.68
2018-09-16T02:59:10.482Z,11.48
2018-09-16T03:00:14.833Z,12.30
2018-09-16T03:01:19.162Z,13.28
2018-09-16T03:02:23.337Z,9.28
2018-09-16T03:03:27.501Z,12.50
2018-09-16T03:04:31.749Z,12.82
2018-09-16T03:05:51.239Z,13.08
2018-09-16T03:06:55.471Z,12.80
2018-09-16T03:07:59.622Z,15.58
2018-09-16T03:09:05.250Z,13.85
2018-09-16T03:10:09.466Z,10.88
2018-09-16T03:11:13.631Z,13.50
2018-09-16T03:12:17.827Z,11.40
2018-09-16T03:13:22.085Z,10.53
2018-09-16T03:14:26.335Z,10.90
2018-09-16T03:15:30.499Z,15.85
2018-09-16T03:16:34.670Z,14.60
2018-09-16T03:17:38.899Z,10.38
2018-09-16T03:18:43.134Z,10.13
2018-09-16T03:19:47.254Z,10.03
2018-09-16T03:20:51.427Z,14.95
2018-09-16T03:21:55.643Z,10.38
2018-09-16T03:22:59.928Z,12.40
2018-09-16T03:24:04.306Z,11.08
2018-09-16T03:25:08.479Z,10.53
2018-09-16T03:26:12.782Z,8.20
2018-09-16T03:27:16.969Z,15.60
2018-09-16T03:28:21.158Z,10.18
2018-09-16T03:29:25.287Z,12.00
2018-09-16T03:30:29.607Z,14.33
2018-09-16T03:31:33.777Z,9.38
2018-09-16T03:32:38.082Z,11.53
2018-09-16T03:33:42.393Z,9.83
2018-09-16T03:34:46.563Z,10.80
2018-09-16T03:35:50.754Z,13.22
2018-09-16T03:36:55.136Z,10.85
2018-09-16T03:37:59.418Z,12.78
2018-09-16T03:39:04.003Z,14.47
2018-09-16T03:40:08.205Z,10.18
2018-09-16T03:41:12.418Z,8.70
2018-09-16T03:42:16.543Z,8.10
2018-09-16T03:43:20.724Z,18.67
2018-09-16T03:44:24.988Z,10.68
2018-09-16T03:45:29.138Z,9.40
2018-09-16T03:46:33.282Z,10.90
2018-09-16T03:47:37.670Z,12.30
2018-09-16T03:48:41.807Z,13.80
2018-09-16T03:49:46.230Z,9.33
2018-09-16T03:50:50.434Z,11.22
2018-09-16T03:51:54.555Z,19.40
2018-09-16T03:52:58.739Z,14.47
2018-09-16T03:54:02.914Z,11.35
2018-09-16T03:55:07.175Z,12.00
2018-09-16T03:56:11.358Z,10.65
2018-09-16T03:57:15.790Z,14.75
2018-09-16T03:58:19.959Z,16.02
2018-09-16T03:59:24.277Z,14.40
2018-09-16T04:00:28.573Z,10.68
2018-09-16T04:01:33.060Z,11.65
2018-09-16T04:02:37.360Z,11.10
2018-09-16T04:03:41.627Z,9.05
2018-09-16T04:04:45.774Z,11.45
2018-09-16T04:05:50.181Z,12.05
2018-09-16T04:06:54.384Z,10.30
2018-09-16T04:07:58.614Z,14.70
2018-09-16T04:09:02.872Z,9.85
2018-09-16T04:10:07.065Z,10.72
2018-09-16T04:11:11.516Z,14.58
2018-09-16T04:12:16.026Z,10.53
2018-09-16T04:13:20.346Z,7.87
2018-09-16T04:14:24.674Z,9.78
2018-09-16T04:15:28.949Z,13.05
2018-09-16T04:16:33.167Z,10.18
2018-09-16T04:17:37.358Z,13.28
2018-09-16T04:18:41.686Z,8.53
2018-09-16T04:19:46.013Z,10.00
2018-09-16T04:20:50.194Z,10.28
2018-09-16T04:21:54.424Z,9.13
2018-09-16T04:22:58.638Z,8.00
2018-09-16T04:24:02.798Z,16.32
2018-09-16T04:25:07.338Z,9.75
2018-09-16T04:26:11.494Z,9.85
2018-09-16T04:27:15.780Z,11.68
2018-09-16T04:28:20.015Z,13.75
2018-09-16T04:29:24.229Z,9.33
2018-09-16T04:30:28.379Z,9.55
2018-09-16T04:31:32.634Z,10.48
2018-09-16T04:32:37.319Z,11.80
2018-09-16T04:33:41.472Z,10.08
2018-09-16T04:34:45.665Z,10.48
2018-09-16T04:35:49.911Z,13.58
2018-09-16T04:36:54.092Z,9.83
2018-09-16T04:37:58.276Z,9.45
2018-09-16T04:39:02.453Z,11.50
2018-09-16T04:40:07.000Z,9.73
2018-09-16T04:41:11.150Z,13.90
2018-09-16T04:42:15.407Z,11.48
2018-09-16T04:43:19.597Z,9.03
2018-09-16T04:44:23.817Z,10.68
2018-09-16T04:45:27.951Z,9.45
2018-09-16T04:46:32.290Z,10.20
2018-09-16T04:47:36.418Z,8.88
2018-09-16T04:48:40.611Z,16.73
2018-09-16T04:49:45.060Z,9.93
2018-09-16T04:50:49.308Z,16.50
2018-09-16T04:51:53.458Z,9.13
2018-09-16T04:52:57.673Z,20.37
2018-09-16T04:54:01.847Z,14.10
2018-09-16T04:55:06.150Z,12.70
2018-09-16T04:56:10.483Z,11.68
2018-09-16T04:57:14.720Z,15.03
2018-09-16T04:58:18.897Z,11.90
2018-09-16T04:59:23.100Z,10.85
2018-09-16T05:00:27.251Z,11.10
2018-09-16T05:01:31.588Z,12.47
2018-09-16T05:02:35.820Z,15.13
2018-09-16T05:03:39.977Z,13.68
2018-09-16T05:04:44.229Z,9.53
2018-09-16T05:05:48.371Z,12.55
2018-09-16T05:06:53.078Z,13.00
2018-09-16T05:07:57.382Z,11.65
2018-09-16T05:09:01.681Z,8.43
2018-09-16T05:10:06.026Z,10.08
2018-09-16T05:11:10.172Z,10.75
2018-09-16T05:12:14.323Z,8.88
2018-09-16T05:13:18.494Z,14.65
2018-09-16T05:14:22.679Z,8.78
2018-09-16T05:15:26.950Z,9.53
2018-09-16T05:16:31.159Z,11.05
2018-09-16T05:17:35.329Z,17.02
2018-09-16T05:18:39.471Z,9.90
2018-09-16T05:19:43.691Z,11.53
2018-09-16T05:20:47.925Z,11.50
2018-09-16T05:21:52.095Z,13.05
2018-09-16T05:22:56.432Z,12.10
2018-09-16T05:24:00.598Z,9.10
2018-09-16T05:25:05.095Z,18.98
2018-09-16T05:26:09.310Z,11.28
2018-09-16T05:27:13.727Z,9.78
2018-09-16T05:28:17.869Z,9.88
2018-09-16T05:29:22.011Z,13.80
2018-09-16T05:30:26.204Z,11.38
2018-09-16T05:31:30.445Z,15.05
2018-09-16T05:32:34.727Z,8.30
2018-09-16T05:33:38.893Z,10.65
2018-09-16T05:34:43.078Z,11.38
2018-09-16T05:35:47.364Z,10.70
2018-09-16T05:36:51.556Z,8.50
2018-09-16T05:37:55.967Z,12.68
2018-09-16T05:39:00.191Z,9.35
2018-09-16T05:40:04.366Z,9.13
2018-09-16T05:41:08.707Z,7.80
2018-09-16T05:42:12.890Z,8.93
2018-09-16T05:43:17.190Z,12.13
2018-09-16T05:44:21.331Z,8.83
2018-09-16T05:45:25.534Z,7.97
2018-09-16T05:46:29.694Z,16.07
2018-09-16T05:47:33.882Z,11.28
2018-09-16T05:48:38.070Z,11.45
2018-09-16T05:49:42.234Z,8.68
2018-09-16T05:50:46.386Z,7.87
2018-09-16T05:51:50.600Z,10.93
2018-09-16T05:52:54.966Z,8.73
2018-09-16T05:53:59.301Z,10.10
2018-09-16T05:55:03.453Z,10.93
2018-09-16T05:56:07.636Z,9.08
2018-09-16T05:57:11.798Z,13.10
2018-09-16T05:58:16.022Z,9.55
2018-09-16T05:59:20.229Z,9.80
2018-09-16T06:00:27.716Z,8.70
2018-09-16T06:01:32.116Z,9.68
2018-09-16T06:02:36.262Z,10.25
2018-09-16T06:03:40.529Z,9.53
2018-09-16T06:04:45.076Z,8.60
2018-09-16T06:05:49.306Z,9.60
2018-09-16T06:06:53.482Z,7.92
2018-09-16T06:07:57.681Z,8.50
2018-09-16T06:09:02.064Z,12.30
2018-09-16T06:10:06.264Z,8.15
2018-09-16T06:11:10.427Z,8.28
2018-09-16T06:12:14.597Z,11.38
2018-09-16T06:13:18.831Z,6.97
2018-09-16T06:14:22.994Z,9.05
2018-09-16T06:15:27.137Z,10.45
2018-09-16T06:16:31.419Z,11.60
2018-09-16T06:17:35.705Z,9.50
2018-09-16T06:18:39.883Z,10.48
2018-09-16T06:19:44.115Z,12.10
2018-09-16T06:20:48.331Z,10.75
2018-09-16T06:21:52.561Z,14.40
2018-09-16T06:22:56.714Z,7.85
2018-09-16T06:24:00.936Z,8.63
2018-09-16T06:25:05.285Z,9.83
2018-09-16T06:26:09.843Z,8.75
2018-09-16T06:27:14.023Z,8.50
2018-09-16T06:28:18.177Z,6.80
2018-09-16T06:29:22.516Z,9.35
2018-09-16T06:30:26.729Z,6.70
2018-09-16T06:31:30.888Z,6.85
2018-09-16T06:32:35.059Z,7.08
2018-09-16T06:33:39.210Z,8.90
2018-09-16T06:34:43.405Z,12.53
2018-09-16T06:35:47.705Z,9.78
2018-09-16T06:36:51.922Z,7.00
2018-09-16T06:37:56.403Z,9.35
2018-09-16T06:39:00.546Z,9.53
2018-09-16T06:40:04.685Z,7.97
2018-09-16T06:41:08.944Z,12.35
2018-09-16T06:42:13.092Z,8.43
2018-09-16T06:43:17.380Z,9.88
2018-09-16T06:44:21.558Z,9.45
2018-09-16T06:45:25.708Z,7.92
2018-09-16T06:46:29.922Z,6.25
2018-09-16T06:47:34.182Z,7.90
2018-09-16T06:48:38.369Z,8.80
2018-09-16T06:49:42.496Z,7.25
2018-09-16T06:50:47.029Z,7.03
2018-09-16T06:51:51.220Z,10.60
2018-09-16T06:52:55.620Z,10.20
2018-09-16T06:53:59.910Z,7.53
2018-09-16T06:55:04.217Z,6.47
2018-09-16T06:56:08.427Z,7.83
2018-09-16T06:57:12.567Z,8.93
2018-09-16T06:58:16.739Z,15.58
2018-09-16T06:59:20.939Z,8.70
2018-09-16T07:01:35.530Z,9.33
2018-09-16T07:02:39.737Z,9.35
2018-09-16T07:03:43.920Z,10.32
2018-09-16T07:04:48.111Z,16.50
2018-09-16T07:05:52.475Z,11.35
2018-09-16T07:06:56.659Z,12.25
2018-09-16T07:08:00.860Z,7.53
2018-09-16T07:09:11.591Z,12.47
2018-09-16T07:10:15.756Z,10.75
2018-09-16T07:11:19.918Z,7.75
2018-09-16T07:12:24.102Z,11.33
2018-09-16T07:13:28.295Z,11.35
2018-09-16T07:14:32.490Z,9.58
2018-09-16T07:15:36.719Z,8.75
2018-09-16T07:16:40.903Z,10.00
2018-09-16T07:17:45.067Z,9.00
2018-09-16T07:18:49.427Z,12.00
2018-09-16T07:19:53.579Z,9.45
2018-09-16T07:20:57.776Z,7.75
2018-09-16T07:22:01.906Z,14.13
2018-09-16T07:23:06.133Z,13.28
2018-09-16T07:24:10.294Z,10.72
2018-09-16T07:25:14.463Z,9.95
2018-09-16T07:26:18.782Z,11.55
2018-09-16T07:27:23.065Z,11.12
2018-09-16T07:28:27.174Z,9.10
2018-09-16T07:29:31.376Z,8.80
2018-09-16T07:30:35.527Z,13.93
2018-09-16T07:31:39.658Z,9.28
2018-09-16T07:32:43.846Z,10.38
2018-09-16T07:33:48.174Z,10.05
2018-09-16T07:34:52.343Z,10.50
2018-09-16T07:35:56.478Z,11.90
2018-09-16T07:37:00.626Z,6.83
2018-09-16T07:38:05.398Z,8.43
2018-09-16T07:39:10.414Z,11.88
2018-09-16T07:40:14.634Z,13.90
2018-09-16T07:41:19.007Z,10.53
2018-09-16T07:42:23.703Z,13.68
2018-09-16T07:43:28.370Z,11.45
2018-09-16T07:44:32.558Z,8.05
2018-09-16T07:45:36.910Z,8.23
2018-09-16T07:46:41.227Z,12.68
2018-09-16T07:47:45.910Z,10.05
2018-09-16T07:48:50.118Z,12.35
2018-09-16T07:49:54.344Z,13.98
2018-09-16T07:50:59.025Z,10.03
2018-09-16T07:52:03.446Z,14.05
2018-09-16T07:53:08.125Z,11.63
2018-09-16T07:54:12.480Z,9.63
2018-09-16T07:55:16.702Z,8.33
2018-09-16T07:56:21.190Z,7.67
2018-09-16T07:57:26.148Z,13.43
2018-09-16T07:58:30.585Z,11.12
2018-09-16T07:59:34.805Z,11.00
2018-09-16T08:00:39.171Z,10.63
2018-09-16T08:01:43.963Z,10.13
2018-09-16T08:02:48.492Z,11.40
2018-09-16T08:03:52.645Z,13.68
2018-09-16T08:04:56.843Z,8.85
2018-09-16T08:06:01.493Z,11.48
2018-09-16T08:07:06.274Z,9.03
2018-09-16T08:08:10.724Z,14.47
2018-09-16T08:09:15.246Z,10.05
2018-09-16T08:10:19.902Z,9.70
2018-09-16T08:11:24.107Z,8.95
2018-09-16T08:12:28.754Z,10.15
2018-09-16T08:13:33.367Z,12.07
2018-09-16T08:14:37.774Z,9.28
2018-09-16T08:15:42.006Z,14.70
2018-09-16T08:16:46.279Z,12.93
2018-09-16T08:17:50.563Z,9.43
2018-09-16T08:18:54.977Z,9.98
2018-09-16T08:19:59.465Z,11.63
2018-09-16T08:21:03.955Z,9.18
2018-09-16T08:22:08.359Z,11.85
2018-09-16T08:23:12.547Z,10.35
2018-09-16T08:24:23.380Z,11.00
2018-09-16T08:25:27.699Z,9.45
2018-09-16T08:26:32.401Z,7.72
2018-09-16T08:27:36.618Z,17.32
2018-09-16T08:28:40.809Z,11.53
2018-09-16T08:29:45.130Z,11.78
2018-09-16T08:30:49.831Z,12.07
2018-09-16T08:31:54.311Z,9.00
2018-09-16T08:32:58.539Z,10.20
2018-09-16T08:34:02.991Z,11.10
2018-09-16T08:35:07.298Z,10.65
2018-09-16T08:36:11.850Z,10.88
2018-09-16T08:37:15.999Z,9.35
2018-09-16T08:38:20.677Z,10.05
2018-09-16T08:39:24.868Z,10.78
2018-09-16T08:40:29.398Z,12.80
2018-09-16T08:41:33.526Z,15.72
2018-09-16T08:42:37.745Z,10.68
2018-09-16T08:43:41.958Z,10.32
2018-09-16T08:44:46.155Z,8.93
2018-09-16T08:45:50.311Z,14.43
2018-09-16T08:46:54.468Z,8.68
2018-09-16T08:47:58.668Z,11.05
2018-09-16T08:49:02.883Z,10.50
2018-09-16T08:50:07.119Z,11.03
2018-09-16T08:51:11.473Z,11.88
2018-09-16T08:52:15.667Z,11.80
2018-09-16T08:53:19.958Z,12.90
2018-09-16T08:54:24.481Z,11.43
2018-09-16T08:55:28.730Z,11.35
2018-09-16T08:56:32.943Z,12.95
2018-09-16T08:57:37.102Z,14.28
2018-09-16T08:58:41.270Z,12.82
2018-09-16T08:59:45.424Z,16.32
2018-09-16T09:00:49.963Z,8.18
2018-09-16T09:01:54.123Z,11.68
2018-09-16T09:02:58.282Z,9.85
2018-09-16T09:04:02.435Z,17.45
2018-09-16T09:05:07.330Z,12.98
2018-09-16T09:06:11.496Z,11.97
2018-09-16T09:07:15.772Z,12.25
2018-09-16T09:08:20.172Z,8.05
2018-09-16T09:09:24.304Z,11.57
2018-09-16T09:10:28.498Z,13.35
2018-09-16T09:11:32.685Z,10.88
2018-09-16T09:12:36.842Z,9.48
2018-09-16T09:13:41.368Z,10.68
2018-09-16T09:14:45.519Z,8.33
2018-09-16T09:15:49.654Z,7.62
2018-09-16T09:16:53.858Z,12.10
2018-09-16T09:17:58.027Z,7.75
2018-09-16T09:19:02.240Z,10.13
2018-09-16T09:20:06.623Z,10.75
2018-09-16T09:21:10.778Z,10.88
2018-09-16T09:22:15.034Z,10.48
2018-09-16T09:23:19.654Z,7.62
2018-09-16T09:24:23.815Z,10.50
2018-09-16T09:25:27.986Z,12.45
2018-09-16T09:26:32.266Z,10.60
2018-09-16T09:27:36.454Z,11.48
2018-09-16T09:28:40.594Z,6.95
2018-09-16T09:29:44.966Z,10.28
2018-09-16T09:30:49.098Z,9.75
2018-09-16T09:31:53.240Z,7.10
2018-09-16T09:32:57.443Z,9.10
2018-09-16T09:34:01.597Z,11.45
2018-09-16T09:35:05.906Z,12.85
2018-09-16T09:36:10.115Z,10.60
2018-09-16T09:37:14.255Z,6.17
2018-09-16T09:38:24.662Z,11.38
2018-09-16T09:39:29.298Z,7.40
2018-09-16T09:40:33.447Z,9.38
2018-09-16T09:41:37.622Z,8.45
2018-09-16T09:42:41.805Z,7.12
2018-09-16T09:43:46.098Z,6.90
2018-09-16T09:44:50.330Z,4.67
2018-09-16T09:45:54.547Z,8.80
2018-09-16T09:46:58.760Z,9.48
2018-09-16T09:48:02.956Z,5.65
2018-09-16T09:49:07.359Z,5.75
2018-09-16T09:50:11.787Z,7.20
2018-09-16T09:51:16.060Z,6.08
2018-09-16T09:52:20.200Z,10.40
2018-09-16T09:53:24.401Z,5.87
2018-09-16T09:54:28.571Z,9.10
2018-09-16T09:55:32.714Z,10.88
2018-09-16T09:56:36.858Z,8.73
2018-09-16T09:57:41.268Z,6.15
2018-09-16T09:58:45.449Z,5.83
2018-09-16T09:59:49.672Z,5.60
2018-09-16T10:00:53.823Z,5.80
2018-09-16T10:01:58.010Z,5.25
2018-09-16T10:03:02.616Z,8.88
2018-09-16T10:04:06.965Z,6.20
2018-09-16T10:05:11.179Z,8.13
2018-09-16T10:06:15.360Z,6.12
2018-09-16T10:07:26.977Z,6.65
2018-09-16T10:08:31.227Z,7.78
2018-09-16T10:09:35.347Z,7.65
2018-09-16T10:10:39.612Z,7.08
2018-09-16T10:11:43.811Z,7.62
2018-09-16T10:12:48.108Z,7.50
2018-09-16T10:13:52.318Z,10.63
2018-09-16T10:14:56.483Z,5.67
2018-09-16T10:16:00.626Z,4.92
2018-09-16T10:17:04.766Z,5.90
2018-09-16T10:18:09.090Z,7.83
2018-09-16T10:19:13.264Z,8.28
2018-09-16T10:20:17.519Z,6.85
2018-09-16T10:21:21.727Z,5.97
2018-09-16T10:22:25.875Z,4.67
2018-09-16T10:23:30.083Z,4.35
2018-09-16T10:24:34.289Z,5.45
2018-09-16T10:25:38.975Z,3.80
2018-09-16T10:26:43.211Z,4.42
2018-09-16T10:27:47.333Z,6.40
2018-09-16T10:28:51.494Z,4.78
2018-09-16T10:29:55.624Z,5.05
2018-09-16T10:30:59.793Z,4.08
2018-09-16T10:32:03.954Z,3.58
2018-09-16T10:33:08.128Z,5.65
2018-09-16T10:34:12.266Z,7.05
2018-09-16T10:35:16.635Z,4.35
2018-09-16T10:36:20.766Z,6.30
2018-09-16T10:37:25.571Z,4.78
2018-09-16T10:38:29.795Z,4.92
2018-09-16T10:39:34.362Z,7.90
2018-09-16T10:40:38.527Z,5.45
2018-09-16T10:41:42.847Z,6.30
2018-09-16T10:42:47.083Z,8.38
2018-09-16T10:43:51.415Z,9.20
2018-09-16T10:44:55.627Z,4.78
2018-09-16T10:45:59.771Z,7.85
2018-09-16T10:47:03.934Z,4.37
2018-09-16T10:48:08.237Z,7.17
2018-09-16T10:49:12.446Z,2.90
2018-09-16T10:50:16.610Z,5.58
2018-09-16T10:51:20.802Z,4.12
2018-09-16T10:52:24.974Z,4.40
2018-09-16T10:53:29.650Z,6.67
2018-09-16T10:54:34.220Z,5.20
2018-09-16T10:55:38.495Z,8.78
2018-09-16T10:56:42.901Z,5.83
2018-09-16T10:57:47.028Z,4.10
2018-09-16T10:58:51.746Z,4.03
2018-09-16T10:59:56.146Z,8.73
2018-09-16T11:01:00.460Z,5.87
2018-09-16T11:02:04.638Z,3.90
2018-09-16T11:03:08.822Z,7.62
2018-09-16T11:04:13.067Z,6.15
2018-09-16T11:05:17.567Z,4.28
2018-09-16T11:06:21.718Z,8.40
2018-09-16T11:07:25.914Z,4.78
2018-09-16T11:08:30.132Z,8.90
2018-09-16T11:09:34.327Z,6.55
2018-09-16T11:10:38.768Z,4.55
2018-09-16T11:11:42.952Z,6.20
2018-09-16T11:12:47.218Z,6.05
2018-09-16T11:13:51.412Z,5.22
2018-09-16T11:14:55.648Z,7.40
2018-09-16T11:15:59.862Z,4.80
2018-09-16T11:17:04.326Z,5.20
2018-09-16T11:18:08.799Z,9.78
2018-09-16T11:19:12.949Z,5.85
2018-09-16T11:20:17.166Z,5.87
2018-09-16T11:21:21.302Z,9.63
2018-09-16T11:22:25.739Z,4.03
2018-09-16T11:23:29.954Z,4.72
2018-09-16T11:24:34.191Z,4.30
2018-09-16T11:25:38.386Z,3.67
2018-09-16T11:26:42.559Z,8.25
2018-09-16T11:27:46.756Z,7.05
2018-09-16T11:28:50.951Z,4.55
2018-09-16T11:29:57.370Z,6.08
2018-09-16T11:31:01.563Z,7.22
2018-09-16T11:32:06.277Z,4.25
2018-09-16T11:33:17.043Z,7.30
2018-09-16T11:34:21.213Z,5.92
2018-09-16T11:35:25.533Z,6.35
2018-09-16T11:36:29.653Z,8.58
2018-09-16T11:37:34.027Z,9.20
2018-09-16T11:38:38.178Z,4.22
2018-09-16T11:39:42.676Z,8.83
2018-09-16T11:40:46.968Z,6.58
2018-09-16T11:41:51.144Z,3.47
2018-09-16T11:42:55.348Z,7.05
2018-09-16T11:43:59.751Z,5.40
2018-09-16T11:45:03.982Z,4.87
2018-09-16T11:46:08.154Z,3.98
2018-09-16T11:47:12.522Z,3.95
2018-09-16T11:48:16.689Z,4.75
2018-09-16T11:49:20.870Z,7.17
2018-09-16T11:50:25.034Z,3.87
2018-09-16T11:51:29.372Z,7.65
2018-09-16T11:52:33.668Z,5.42
2018-09-16T11:53:38.162Z,6.20
2018-09-16T11:54:42.403Z,8.20
2018-09-16T11:55:46.664Z,3.65
2018-09-16T11:56:51.085Z,7.70
2018-09-16T11:57:55.381Z,3.40
2018-09-16T11:58:59.700Z,4.20
2018-09-16T12:00:03.934Z,4.75
2018-09-16T12:01:08.122Z,6.85
2018-09-16T12:02:12.365Z,4.20
2018-09-16T12:03:16.621Z,3.85
2018-09-16T12:04:20.774Z,2.35
2018-09-16T12:05:24.952Z,6.12
2018-09-16T12:06:29.111Z,6.70
2018-09-16T12:07:36.460Z,3.98
2018-09-16T12:08:40.734Z,4.10
2018-09-16T12:09:44.927Z,4.03
2018-09-16T12:10:49.101Z,7.42
2018-09-16T12:11:53.329Z,4.70
2018-09-16T12:12:57.533Z,4.00
2018-09-16T12:14:01.759Z,2.95
2018-09-16T12:15:06.107Z,3.62
2018-09-16T12:16:10.330Z,3.98
2018-09-16T12:17:14.527Z,3.25
2018-09-16T12:18:18.681Z,5.50
2018-09-16T12:19:23.381Z,4.03
2018-09-16T12:20:27.558Z,2.55
2018-09-16T12:21:31.797Z,6.87
2018-09-16T12:22:36.012Z,5.17
2018-09-16T12:23:40.320Z,4.05
2018-09-16T12:24:44.663Z,4.65
2018-09-16T12:25:48.811Z,5.80
2018-09-16T12:26:53.130Z,5.17
2018-09-16T12:27:57.314Z,5.03
2018-09-16T12:29:01.745Z,5.62
2018-09-16T12:30:06.143Z,4.20
2018-09-16T12:31:10.335Z,6.65
2018-09-16T12:32:14.511Z,5.83
2018-09-16T12:33:18.710Z,4.37
2018-09-16T12:34:22.975Z,2.17
2018-09-16T12:35:27.203Z,3.33
2018-09-16T12:36:31.700Z,6.12
2018-09-16T12:37:36.102Z,4.53
2018-09-16T12:38:40.337Z,4.62
2018-09-16T12:39:44.926Z,4.22
2018-09-16T12:40:49.201Z,3.20
2018-09-16T12:41:53.610Z,5.65
2018-09-16T12:42:57.948Z,6.70
2018-09-16T12:44:02.152Z,5.08
2018-09-16T12:45:06.593Z,6.28
2018-09-16T12:46:10.949Z,4.87
2018-09-16T12:47:15.130Z,3.67
2018-09-16T12:48:19.486Z,8.55
2018-09-16T12:49:23.670Z,6.12
2018-09-16T12:50:27.895Z,5.60
2018-09-16T12:51:32.060Z,5.10
2018-09-16T12:52:36.245Z,3.50
2018-09-16T12:53:40.433Z,7.95
2018-09-16T12:54:44.808Z,6.20
2018-09-16T12:55:48.975Z,4.80
2018-09-16T12:56:53.230Z,7.53
2018-09-16T12:57:57.371Z,7.17
2018-09-16T12:59:01.578Z,3.37
2018-09-16T13:00:05.790Z,4.35
2018-09-16T13:01:09.985Z,4.12
2018-09-16T13:02:14.215Z,2.95
2018-09-16T13:03:18.564Z,3.50
2018-09-16T13:04:22.766Z,6.17
2018-09-16T13:05:26.974Z,5.05
2018-09-16T13:06:31.254Z,6.42
2018-09-16T13:07:35.590Z,6.03
2018-09-16T13:08:39.920Z,3.12
2018-09-16T13:09:44.250Z,3.15
2018-09-16T13:10:48.440Z,6.12
2018-09-16T13:11:52.820Z,5.60
2018-09-16T13:12:57.330Z,3.72
2018-09-16T13:14:01.504Z,2.70
2018-09-16T13:15:05.800Z,3.58
2018-09-16T13:16:16.398Z,3.35
2018-09-16T13:17:20.596Z,4.30
2018-09-16T13:18:24.863Z,5.45
2018-09-16T13:19:29.231Z,3.67
2018-09-16T13:20:33.627Z,7.28
2018-09-16T13:21:37.766Z,2.93
2018-09-16T13:22:42.037Z,5.80
2018-09-16T13:23:46.398Z,3.98
2018-09-16T13:24:50.618Z,5.58
2018-09-16T13:25:54.791Z,6.20
2018-09-16T13:26:58.951Z,5.57
2018-09-16T13:28:02.147Z,2.93
2018-09-16T13:29:06.257Z,7.40
2018-09-16T13:30:10.495Z,5.20
2018-09-16T13:31:13.813Z,4.03
2018-09-16T13:32:17.766Z,7.90
2018-09-16T13:33:22.298Z,3.20
2018-09-16T13:34:26.520Z,8.27
2018-09-16T13:35:29.835Z,4.23
2018-09-16T13:36:33.763Z,5.47
2018-09-16T13:37:37.968Z,3.52
2018-09-16T13:38:42.247Z,5.62
2018-09-16T13:39:46.879Z,3.85
2018-09-16T13:40:51.065Z,6.60
2018-09-16T13:41:55.250Z,3.67
2018-09-16T13:42:59.390Z,7.33
2018-09-16T13:44:03.580Z,3.00
2018-09-16T13:45:07.799Z,3.40
2018-09-16T13:46:12.020Z,7.17
2018-09-16T13:47:16.248Z,4.03
2018-09-16T13:48:20.509Z,4.53
2018-09-16T13:49:24.744Z,3.67
2018-09-16T13:50:28.986Z,4.00
2018-09-16T13:51:33.221Z,3.60
2018-09-16T13:52:37.724Z,7.23
2018-09-16T13:53:42.195Z,5.93
2018-09-16T13:54:46.559Z,5.33
2018-09-16T13:55:51.664Z,5.73
2018-09-16T13:56:55.911Z,6.10
2018-09-16T13:58:00.091Z,4.17
2018-09-16T13:59:04.346Z,11.80
2018-09-16T14:00:08.811Z,5.95
2018-09-16T14:01:13.058Z,8.90
2018-09-16T14:02:17.238Z,5.55
2018-09-16T14:03:21.683Z,3.85
2018-09-16T14:04:26.044Z,3.17